Sturgeon Falls, Canada
Current Conditions -  °F | °C
As of 7:00 AM on Friday 28 Nov 2014 (Local Time) from CYYB Reporting Station
Broken Clouds Broken Clouds  
Wind Chill: -6°   Ceiling: 2400
Heat Index:   Visibility: 15mi
Dew Point:   Wind: 6mph
Humidity: 92%   Direction: 340°NNW
Pressure: 30.13"   Gusts: NA
Location:  46.37°N, 79.93°W
Report Text: CYYB 281200Z 34005KT 15SM BKN024 M15/M16 A3013 RMK SC6 SLP232
Loading
Personal Weather Stations






























Interactive Weather Map New forecast layout! Learn more

10-Day Weather Forecast

Advertisements
Track Severe Weather on mobile